createdAt,value
2017-11-01T00:01:49.734Z,71.2
2017-11-01T00:18:35.081Z,71.2
2017-11-01T00:35:19.774Z,71.2
2017-11-01T00:52:05.085Z,71.2
2017-11-01T01:08:49.623Z,71.2
2017-11-01T01:25:34.548Z,71.6
2017-11-01T01:42:19.310Z,71.6
2017-11-01T01:59:03.982Z,71.6
2017-11-01T02:15:48.671Z,71.6
2017-11-01T02:32:33.322Z,71.6
2017-11-01T02:49:17.978Z,71.6
2017-11-01T03:06:02.646Z,71.6
2017-11-01T03:22:47.166Z,71.6
2017-11-01T03:39:31.893Z,71.6
2017-11-01T03:56:16.528Z,71.6
2017-11-01T04:13:01.101Z,71.6
2017-11-01T04:29:45.732Z,71.6
2017-11-01T04:46:30.363Z,71.6
2017-11-01T05:03:14.942Z,71.2
2017-11-01T05:19:59.522Z,71.6
2017-11-01T05:36:44.067Z,71.2
2017-11-01T05:53:28.714Z,71.2
2017-11-01T06:10:13.439Z,71.2
2017-11-01T06:26:58.280Z,71.2
2017-11-01T06:43:43.123Z,71.2
2017-11-01T07:00:27.998Z,70.8
2017-11-01T07:17:12.834Z,70.8
2017-11-01T07:33:57.692Z,70.8
2017-11-01T07:50:42.577Z,70.8
2017-11-01T08:07:27.569Z,70.8
2017-11-01T08:24:12.586Z,70.8
2017-11-01T08:40:57.572Z,70.4
2017-11-01T08:57:42.826Z,70.4
2017-11-01T09:14:27.652Z,70.4
2017-11-01T09:31:12.833Z,70.4
2017-11-01T09:47:57.934Z,70.4
2017-11-01T10:04:43.193Z,70.0
2017-11-01T10:21:28.245Z,70.0
2017-11-01T10:38:13.301Z,70.0
2017-11-01T10:54:58.476Z,69.6
2017-11-01T11:11:43.875Z,69.2
2017-11-01T11:28:29.292Z,68.8
2017-11-01T11:45:14.740Z,68.8
2017-11-01T12:02:00.438Z,68.8
2017-11-01T12:18:45.880Z,69.2
2017-11-01T12:35:32.340Z,69.2
2017-11-01T12:52:18.430Z,69.2
2017-11-01T13:09:04.661Z,69.2
2017-11-01T13:25:51.194Z,69.6
2017-11-01T13:42:38.596Z,69.6
2017-11-01T13:59:23.506Z,70.4
2017-11-01T14:16:09.864Z,71.6
2017-11-01T14:32:55.825Z,72.8
2017-11-01T14:49:42.004Z,73.6
2017-11-01T15:06:28.433Z,73.6
2017-11-01T15:23:14.411Z,73.2
2017-11-01T15:40:00.495Z,72.4
2017-11-01T15:56:46.482Z,72.0
2017-11-01T16:13:32.497Z,72.4
2017-11-01T16:30:18.623Z,73.2
2017-11-01T16:47:05.037Z,73.6
2017-11-01T17:03:51.553Z,74.0
2017-11-01T17:20:38.063Z,74.0
2017-11-01T17:37:24.813Z,74.4
2017-11-01T17:54:10.764Z,74.4
2017-11-01T18:10:56.713Z,75.2
2017-11-01T18:27:42.652Z,75.6
2017-11-01T18:44:28.917Z,76.0
2017-11-01T19:01:14.824Z,76.0
2017-11-01T19:18:00.920Z,76.0
2017-11-01T19:34:47.327Z,76.4
2017-11-01T19:51:33.278Z,76.4
2017-11-01T20:08:19.592Z,76.4
2017-11-01T20:25:06.008Z,76.4
2017-11-01T20:41:52.341Z,76.4
2017-11-01T20:58:38.654Z,76.8
2017-11-01T21:15:25.127Z,77.2
2017-11-01T21:32:11.857Z,77.2
2017-11-01T21:48:58.282Z,77.2
2017-11-01T22:05:44.978Z,77.2
2017-11-01T22:22:32.139Z,77.2
2017-11-01T22:39:18.248Z,77.2
2017-11-01T22:56:04.950Z,77.2
2017-11-01T23:12:51.577Z,77.2
2017-11-01T23:29:38.474Z,77.2
2017-11-01T23:46:25.319Z,77.2
